METAR Data
IDs: Format: Raw Decoded Include TAF

Data at: 1126 UTC 16 Feb 2019

PAGN 161056Z AUTO 05004KT 10SM CLR M06/M12 A3013 RMK AO2 SLP192 T10611117 FZRANO
PAGN 160956Z AUTO 04003KT 10SM CLR M07/M11 A3010 RMK AO2 SLP184 T10671106 FZRANO
PAGN 160856Z AUTO 06003KT 10SM CLR M06/M10 A3007 RMK AO2 SLP173 T10611100 400171072 53024 FZRANO
PAGN 160756Z AUTO 07003KT 10SM CLR M06/M10 A3004 RMK AO2 SLP163 T10611100 FZRANO
PAGN 160656Z AUTO 06003KT 10SM CLR M06/M10 A3002 RMK AO2 SLP156 T10611100 FZRANO
PAGN 160456Z AUTO 04003KT 10SM CLR M05/M10 A2998 RMK AO2 SLP141 T10501100 FZRANO
PAGN 160356Z AUTO 02005KT 10SM CLR M04/M10 A2995 RMK AO2 SLP131 T10441100 FZRANO
PAGN 160256Z AUTO 03006KT 10SM CLR M04/M10 A2992 RMK AO2 SLP122 T10391100 53024 FZRANO
PAGN 160156Z AUTO 01005KT 10SM CLR M03/M10 A2989 RMK AO2 SLP112 T10281100 FZRANO
PAGN 160056Z AUTO 03006KT 10SM FEW060 M02/M09 A2988 RMK AO2 SLP106 T10221094 FZRANO
PAGN 152356Z AUTO 04006KT 10SM SCT055 M01/M09 A2985 RMK AO2 SLP098 T10111094 10017 21044 53019 FZRANO
PAGN 152256Z AUTO 09003KT 10SM BKN044 M01/M09 A2983 RMK AO2 SLP091 T10111094 FZRANO
PAGN 152156Z AUTO 06006KT 10SM BKN048 M01/M11 A2981 RMK AO2 SLP084 T10061106 FZRANO
PAGN 152056Z AUTO VRB03KT 10SM CLR 01/M09 A2980 RMK AO2 SLP079 T00061094 51015 FZRANO
PAGN 151956Z AUTO 06005KT 10SM CLR M01/M09 A2979 RMK AO2 SLP076 T10061089 FZRANO
PAGN 151856Z AUTO 07004KT 10SM CLR M02/M07 A2977 RMK AO2 SLP070 T10171072 FZRANO
PAGN 151756Z AUTO 04003KT 10SM CLR M04/M06 A2975 RMK AO2 SLP065 T10441056 11033 21061 53017 FZRANO
PAGN 151656Z AUTO 00000KT 9SM CLR M06/M07 A2973 RMK AO2 SLP058 T10611072 FZRANO
PAGN 151556Z AUTO 00000KT 10SM CLR M06/M07 A2971 RMK AO2 SLP051 T10561072 FZRANO
PAGN 151456Z AUTO 00000KT 10SM CLR M04/M07 A2971 RMK AO2 SLP048 T10441067 53013 FZRANO
PAGN 151356Z AUTO 07003KT 10SM CLR M03/M07 A2969 RMK AO2 SLP043 T10331072 FZRANO
PAGN 151256Z AUTO 00000KT 10SM CLR M04/M07 A2968 RMK AO2 SLP040 T10391067 FZRANO
PAGN 151156Z AUTO 00000KT 10SM CLR M03/M06 A2967 RMK AO2 SLP036 T10331061 11033 21039 51008 FZRANO
PAGN 151056Z AUTO 11005KT 10SM CLR M03/M06 A2967 RMK AO2 SLP035 T10331056 FZRANO
PAGN 150956Z AUTO 00000KT 10SM CLR M03/M06 A2965 RMK AO2 SLP031 T10331056 FZRANO
PAGN 150856Z AUTO 00000KT 10SM CLR M04/M06 A2964 RMK AO2 SLP027 T10391056 400171039 53005 FZRANO
PAGN 150756Z AUTO 00000KT 10SM CLR M03/M05 A2964 RMK AO2 SLP025 T10331050 FZRANO
PAGN 150656Z AUTO 00000KT 10SM CLR M04/M05 A2964 RMK AO2 SLP025 T10391050 FZRANO
PAGN 150556Z AUTO 00000KT 10SM CLR M03/M04 A2963 RMK AO2 SLP022 T10331044 10006 21033 50001 FZRANO
PAGN 150456Z AUTO 00000KT 10SM CLR M03/M06 A2963 RMK AO2 SLP024 T10331056 FZRANO
PAGN 150356Z AUTO 00000KT 10SM CLR M03/M06 A2963 RMK AO2 SLP024 T10331056 FZRANO
PAGN 150256Z AUTO 00000KT 10SM CLR M02/M05 A2963 RMK AO2 SLP021 T10171050 52008 FZRANO
PAGN 150156Z AUTO 00000KT 10SM CLR M01/M06 A2962 RMK AO2 SLP020 T10111056 FZRANO
PAGN 150056Z AUTO 09003KT 10SM CLR 00/M06 A2961 RMK AO2 SLP016 T00001056 FZRANO
PAGN 142356Z AUTO 01003KT 10SM FEW120 01/M06 A2960 RMK AO2 SLP014 T00111061 10017 21017 56009 FZRANO